Time;durP1;ratioP1;P1;durP2;ratioP2;P2;SDS_P1;SDS_P2;PMS_P1;PMS_P2;Temp;Humidity;BMP_temperature;BMP_pressure;BME280_temperature;BME280_humidity;BME280_pressure;Samples;Min_cycle;Max_cycle;Signal;HPM_P1;HPM_P2
2022/04/09 00:00:21;;;;;;;5.72;2.08;;;;;;;14.83;38.44;93079.38;5143748;27;20300;-71
2022/04/09 00:02:47;;;;;;;2.33;1.30;;;;;;;14.84;38.57;93072.91;5143685;27;20026;-71
2022/04/09 00:05:13;;;;;;;4.30;1.40;;;;;;;14.86;38.58;93059.13;5143812;28;20051;-71
2022/04/09 00:07:39;;;;;;;3.22;1.42;;;;;;;14.85;38.24;93068.28;5143677;28;20023;-72
2022/04/09 00:10:06;;;;;;;6.03;1.20;;;;;;;14.72;38.69;93072.31;5143921;28;20049;-72
2022/04/09 00:12:32;;;;;;;3.90;1.25;;;;;;;14.76;38.75;93051.69;5143674;28;20027;-72
2022/04/09 00:14:58;;;;;;;6.28;1.45;;;;;;;14.72;38.92;93077.69;5143729;28;20027;-74
2022/04/09 00:17:23;;;;;;;2.08;1.15;;;;;;;14.64;39.16;93072.19;5143702;28;20206;-73
2022/04/09 00:19:49;;;;;;;2.78;1.17;;;;;;;14.62;39.17;93079.03;5143771;28;20051;-73
2022/04/09 00:22:15;;;;;;;4.95;1.23;;;;;;;14.56;39.16;93073.19;5143485;28;20039;-73
2022/04/09 00:24:40;;;;;;;3.08;1.00;;;;;;;14.56;39.41;93089.28;5143564;28;20035;-73
2022/04/09 00:27:06;;;;;;;2.58;1.40;;;;;;;14.54;39.76;93080.78;5143762;28;20019;-73
2022/04/09 00:29:31;;;;;;;5.40;1.35;;;;;;;14.51;39.82;93086.06;5143709;28;20061;-73
2022/04/09 00:31:57;;;;;;;9.75;2.80;;;;;;;14.56;39.29;93075.88;5143468;28;20042;-73
2022/04/09 00:34:23;;;;;;;5.40;1.23;;;;;;;14.57;39.80;93074.75;5143380;28;20039;-73
2022/04/09 00:36:48;;;;;;;4.93;1.20;;;;;;;14.57;40.07;93088.16;5143660;28;20082;-71
2022/04/09 00:39:13;;;;;;;1.42;0.93;;;;;;;14.58;39.84;93087.00;5125336;28;20035;-72
2022/04/09 00:41:47;;;;;;;5.47;1.30;;;;;;;14.42;39.97;93073.69;5143287;28;20065;-72
2022/04/09 00:44:22;;;;;;;4.65;1.30;;;;;;;14.51;40.06;93068.09;5143489;28;20030;-72
2022/04/09 00:46:47;;;;;;;4.90;1.25;;;;;;;14.56;40.15;93053.66;5143519;28;20084;-72
2022/04/09 00:49:14;;;;;;;8.05;1.45;;;;;;;14.56;40.09;93064.38;5143345;28;20031;-72
2022/04/09 00:51:41;;;;;;;3.92;1.33;;;;;;;14.51;40.10;93049.34;5143159;28;20027;-73
2022/04/09 00:54:08;;;;;;;4.32;1.17;;;;;;;14.51;40.39;93056.59;5143459;28;20027;-72
2022/04/09 00:56:37;;;;;;;2.83;1.52;;;;;;;14.41;40.38;93041.84;5143415;28;20243;-72
2022/04/09 00:59:06;;;;;;;2.78;1.42;;;;;;;14.48;40.61;93047.34;5143431;28;20221;-73
2022/04/09 01:01:34;;;;;;;1.85;1.08;;;;;;;14.47;40.37;93045.81;5143241;28;20031;-73
2022/04/09 01:04:00;;;;;;;3.13;1.20;;;;;;;14.52;40.44;93036.69;5143225;28;20027;-73
2022/04/09 01:06:26;;;;;;;2.42;1.13;;;;;;;14.47;40.43;93056.53;5143392;28;20086;-73
2022/04/09 01:08:52;;;;;;;3.45;1.42;;;;;;;14.42;40.47;93038.06;5143565;28;20060;-73
2022/04/09 01:11:18;;;;;;;4.22;1.48;;;;;;;14.49;40.17;93037.41;5143355;28;20038;-73
2022/04/09 01:13:44;;;;;;;2.05;1.40;;;;;;;14.53;40.67;93014.91;5146573;27;20373;-73
2022/04/09 01:16:10;;;;;;;4.07;1.30;;;;;;;14.52;40.49;93024.06;5147115;27;20082;-73
2022/04/09 01:18:36;;;;;;;3.72;1.42;;;;;;;14.56;40.12;93019.56;5146914;27;20023;-73
2022/04/09 01:21:04;;;;;;;2.97;1.38;;;;;;;14.64;40.28;93012.41;5146878;27;20030;-73
2022/04/09 01:23:30;;;;;;;2.42;1.20;;;;;;;14.57;40.02;93028.38;5146673;27;20091;-73
2022/04/09 01:25:59;;;;;;;6.22;1.10;;;;;;;14.58;40.01;93006.56;5146910;27;20072;-73
2022/04/09 01:28:26;;;;;;;2.13;0.98;;;;;;;14.58;40.13;93021.88;5146828;27;20027;-73
2022/04/09 01:30:52;;;;;;;3.75;1.45;;;;;;;14.48;40.26;93020.53;5146619;27;20110;-73
2022/04/09 01:33:18;;;;;;;4.82;1.30;;;;;;;14.47;40.35;93015.53;5146674;27;20037;-73
2022/04/09 01:35:45;;;;;;;5.25;1.50;;;;;;;14.47;40.32;93035.09;5146511;27;20281;-73
2022/04/09 01:38:10;;;;;;;3.40;1.10;;;;;;;14.53;40.26;93024.81;5146523;27;20071;-74
2022/04/09 01:40:36;;;;;;;6.20;1.55;;;;;;;14.48;40.19;93020.53;5146309;27;20248;-73
2022/04/09 01:43:02;;;;;;;4.70;1.23;;;;;;;14.53;39.92;93033.66;5146647;27;20042;-73
2022/04/09 01:45:28;;;;;;;2.72;1.20;;;;;;;14.56;39.69;93037.56;5146320;27;20089;-73
2022/04/09 01:47:54;;;;;;;3.53;1.33;;;;;;;14.61;39.77;93024.63;5146604;27;20086;-73
2022/04/09 01:50:21;;;;;;;3.90;1.23;;;;;;;14.64;39.72;93015.84;5146299;27;20200;-73
2022/04/09 01:52:47;;;;;;;2.85;1.20;;;;;;;14.58;40.26;93011.94;5146282;27;20309;-73
2022/04/09 01:55:12;;;;;;;5.57;1.30;;;;;;;14.57;39.91;93014.97;5146244;27;20089;-73
2022/04/09 01:57:38;;;;;;;2.65;1.10;;;;;;;14.53;39.68;93004.16;5146051;27;20217;-73
2022/04/09 02:00:06;;;;;;;5.32;1.40;;;;;;;14.55;39.85;93014.50;5146074;27;20022;-72
2022/04/09 02:02:32;;;;;;;2.10;1.25;;;;;;;14.55;39.81;93014.50;5145973;27;20038;-72
2022/04/09 02:04:57;;;;;;;4.70;1.20;;;;;;;14.55;39.68;93035.97;5146090;27;20325;-72
2022/04/09 02:07:23;;;;;;;7.00;1.20;;;;;;;14.60;39.34;93033.78;5127658;27;20034;-72
2022/04/09 02:09:49;;;;;;;4.63;1.42;;;;;;;14.42;41.15;93038.81;5146045;27;20023;-72
2022/04/09 02:12:14;;;;;;;4.43;1.70;;;;;;;14.31;41.22;93043.25;5145993;27;20073;-72
2022/04/09 02:14:40;;;;;;;3.00;1.85;;;;;;;14.25;41.70;93040.06;5127387;27;20328;-73
2022/04/09 02:17:05;;;;;;;6.95;1.45;;;;;;;14.24;41.04;93038.50;5145753;27;20030;-72
2022/04/09 02:19:31;;;;;;;3.55;1.50;;;;;;;14.17;41.66;93029.59;5145792;27;20015;-73
2022/04/09 02:21:56;;;;;;;7.15;1.70;;;;;;;14.13;41.96;93042.13;5145693;27;20030;-72
2022/04/09 02:24:22;;;;;;;4.22;1.60;;;;;;;14.07;41.99;93043.56;5145199;27;20031;-72
2022/04/09 02:26:47;;;;;;;5.57;1.90;;;;;;;14.08;42.44;93050.44;5145688;27;20078;-72
2022/04/09 02:29:13;;;;;;;6.75;2.38;;;;;;;13.97;42.40;93036.88;5145514;27;20045;-73
2022/04/09 02:31:38;;;;;;;6.13;1.85;;;;;;;14.02;42.51;93053.44;5145592;27;20210;-73
2022/04/09 02:34:05;;;;;;;5.70;2.03;;;;;;;13.98;43.12;93046.44;5145163;27;20050;-73
2022/04/09 02:36:32;;;;;;;3.03;1.80;;;;;;;13.96;43.02;93037.97;5145459;27;20019;-72
2022/04/09 02:38:58;;;;;;;4.20;1.65;;;;;;;13.90;43.05;93032.16;5145328;27;20023;-72
2022/04/09 02:41:24;;;;;;;4.45;2.00;;;;;;;13.88;43.52;93025.56;5145219;27;20027;-72
2022/04/09 02:43:49;;;;;;;7.50;2.05;;;;;;;13.83;43.26;93032.00;5145250;27;20031;-72
2022/04/09 02:46:16;;;;;;;4.20;1.95;;;;;;;13.79;43.32;93015.84;5145180;27;20514;-72
2022/04/09 02:48:42;;;;;;;3.17;1.67;;;;;;;13.82;43.43;93022.44;5145287;27;20042;-72
2022/04/09 02:51:08;;;;;;;7.43;2.08;;;;;;;13.78;43.57;93017.00;5145081;27;20314;-72
2022/04/09 02:53:33;;;;;;;7.15;1.95;;;;;;;13.77;43.24;93009.31;5144995;27;20086;-72
2022/04/09 02:55:59;;;;;;;4.82;1.80;;;;;;;13.77;43.44;93026.16;5144866;27;20027;-73
2022/04/09 02:58:24;;;;;;;4.75;1.80;;;;;;;13.77;43.26;93004.72;5145019;27;20027;-73
2022/04/09 03:00:50;;;;;;;4.78;1.83;;;;;;;13.77;43.37;93015.44;5144820;27;20265;-73
2022/04/09 03:03:15;;;;;;;9.20;2.03;;;;;;;13.77;43.39;93010.06;5144864;27;20019;-72
2022/04/09 03:05:40;;;;;;;7.53;1.60;;;;;;;13.72;43.30;93007.69;5144754;27;20029;-73
2022/04/09 03:08:06;;;;;;;6.93;1.88;;;;;;;13.68;43.38;93017.56;5144662;27;20039;-73
2022/04/09 03:10:31;;;;;;;4.60;1.60;;;;;;;13.66;43.46;93011.78;5144816;27;20090;-73
2022/04/09 03:12:58;;;;;;;7.57;1.80;;;;;;;13.62;43.42;93016.28;5144706;27;20011;-73
2022/04/09 03:15:24;;;;;;;4.47;1.63;;;;;;;13.60;43.84;93026.59;5144665;27;20241;-72
2022/04/09 03:17:49;;;;;;;9.45;1.88;;;;;;;13.57;44.32;93005.84;5144194;27;20019;-73
2022/04/09 03:20:15;;;;;;;6.57;2.38;;;;;;;13.50;44.55;93016.44;5144649;27;20287;-72
2022/04/09 03:22:44;;;;;;;5.10;2.00;;;;;;;13.39;45.01;93022.34;5144400;27;20023;-73
2022/04/09 03:25:11;;;;;;;7.32;2.22;;;;;;;13.29;45.38;93011.38;5144474;27;20251;-73
2022/04/09 03:27:37;;;;;;;5.18;2.33;;;;;;;13.20;45.62;93009.66;5144225;27;20015;-73
2022/04/09 03:30:04;;;;;;;4.57;2.08;;;;;;;13.10;45.77;93020.91;5125998;27;20169;-73
2022/04/09 03:32:29;;;;;;;5.82;2.70;;;;;;;13.00;46.07;93019.53;5144362;27;20026;-72
2022/04/09 03:34:55;;;;;;;2.90;1.95;;;;;;;12.92;46.24;93031.19;5142961;27;20031;-72
2022/04/09 03:37:20;;;;;;;6.20;2.42;;;;;;;12.77;46.66;93013.28;5143637;27;20027;-72
2022/04/09 03:39:46;;;;;;;14.25;2.58;;;;;;;12.72;47.14;93022.38;5144303;27;20190;-73
2022/04/09 03:42:11;;;;;;;4.90;2.33;;;;;;;12.65;47.46;93028.28;5144064;27;20036;-73
2022/04/09 03:44:37;;;;;;;6.38;3.20;;;;;;;12.52;47.72;93018.06;5143895;27;20026;-73
2022/04/09 03:47:05;;;;;;;6.90;3.00;;;;;;;12.45;48.02;93015.97;5144159;27;20029;-72
2022/04/09 03:49:31;;;;;;;5.47;2.53;;;;;;;12.38;48.05;93013.13;5144043;27;20046;-73
2022/04/09 03:51:57;;;;;;;5.78;2.42;;;;;;;12.36;48.35;93021.50;5144145;27;20011;-73
2022/04/09 03:54:23;;;;;;;10.55;3.05;;;;;;;12.28;48.48;93024.34;5144166;27;20031;-74
2022/04/09 03:56:49;;;;;;;6.00;2.85;;;;;;;12.28;48.35;93019.00;5143953;27;20329;-74
2022/04/09 03:59:15;;;;;;;5.72;2.70;;;;;;;12.30;48.38;93011.41;5143740;27;20031;-74
2022/04/09 04:01:43;;;;;;;6.13;3.08;;;;;;;12.27;48.39;93012.09;5143873;27;20116;-74
2022/04/09 04:04:11;;;;;;;6.05;2.55;;;;;;;12.22;48.52;93024.56;5144012;27;20086;-73
2022/04/09 04:06:36;;;;;;;8.07;3.00;;;;;;;12.21;48.64;93027.59;5143836;27;20019;-73
2022/04/09 04:09:02;;;;;;;6.07;2.88;;;;;;;12.17;48.73;93029.41;5125256;28;20068;-72
2022/04/09 04:11:28;;;;;;;9.63;4.28;;;;;;;12.13;48.83;93021.31;5143952;28;20015;-73
2022/04/09 04:13:53;;;;;;;7.88;3.42;;;;;;;12.11;49.01;93026.22;5143947;28;20015;-73
2022/04/09 04:16:19;;;;;;;7.88;2.90;;;;;;;12.10;49.09;93023.88;5125219;28;20034;-74
2022/04/09 04:18:44;;;;;;;8.57;4.20;;;;;;;12.08;48.84;93016.19;5143786;28;20356;-73
2022/04/09 04:21:09;;;;;;;19.40;3.13;;;;;;;12.07;49.10;93012.00;5143762;28;20031;-72
2022/04/09 04:23:35;;;;;;;6.70;3.10;;;;;;;12.07;49.28;93014.66;5143596;28;20024;-72
2022/04/09 04:26:02;;;;;;;11.68;3.90;;;;;;;12.13;49.31;93023.19;5143473;28;20019;-72
2022/04/09 04:28:27;;;;;;;6.28;2.22;;;;;;;12.13;49.18;93013.28;5143726;28;20023;-72
2022/04/09 04:30:53;;;;;;;7.40;2.72;;;;;;;12.10;49.32;93008.63;5143597;28;20096;-72
2022/04/09 04:33:18;;;;;;;14.52;2.90;;;;;;;12.08;49.28;93010.09;5143370;28;20355;-72
2022/04/09 04:35:44;;;;;;;10.43;2.80;;;;;;;12.10;49.15;93008.63;5143438;28;20047;-72
2022/04/09 04:38:11;;;;;;;8.43;2.80;;;;;;;12.17;49.11;93011.50;5143583;28;20023;-72
2022/04/09 04:40:36;;;;;;;10.60;3.30;;;;;;;12.23;49.31;93015.47;5143106;28;20033;-72
2022/04/09 04:43:02;;;;;;;7.00;2.42;;;;;;;12.26;48.99;93007.88;5143530;28;20269;-73
2022/04/09 04:45:27;;;;;;;4.88;2.53;;;;;;;12.31;49.00;93013.72;5143544;28;20055;-72
2022/04/09 04:47:53;;;;;;;7.40;2.60;;;;;;;12.39;49.11;93010.09;5145678;27;20027;-73
2022/04/09 04:50:19;;;;;;;6.78;2.72;;;;;;;12.44;48.89;93009.09;5147096;27;20023;-73
2022/04/09 04:52:45;;;;;;;6.90;2.75;;;;;;;12.50;48.79;93009.63;5147390;27;20022;-73
2022/04/09 04:55:11;;;;;;;7.90;2.65;;;;;;;12.55;48.56;93004.75;5147064;27;20019;-73
2022/04/09 04:57:44;;;;;;;6.82;1.98;;;;;;;12.68;48.14;92999.31;5147161;27;20019;-73
2022/04/09 05:00:11;;;;;;;6.70;2.25;;;;;;;12.78;48.03;92993.44;5147236;27;20046;-74
2022/04/09 05:02:37;;;;;;;9.50;2.38;;;;;;;12.84;47.96;92992.84;5146832;27;20019;-74
2022/04/09 05:05:04;;;;;;;16.85;3.28;;;;;;;12.95;47.96;92993.06;5147154;27;20031;-73
2022/04/09 05:07:38;;;;;;;10.43;2.30;;;;;;;13.07;47.74;92994.88;5147001;27;20064;-73
2022/04/09 05:10:06;;;;;;;13.10;2.55;;;;;;;13.16;47.75;92982.06;5146680;27;20300;-72
2022/04/09 05:12:33;;;;;;;7.05;2.38;;;;;;;13.28;47.54;92991.09;5146891;27;20034;-72
2022/04/09 05:14:58;;;;;;;5.13;1.60;;;;;;;13.40;46.36;92991.75;5146958;27;20019;-73
2022/04/09 05:17:24;;;;;;;7.75;2.10;;;;;;;13.55;45.95;92992.03;5146617;27;20029;-73
2022/04/09 05:19:49;;;;;;;4.95;1.67;;;;;;;13.67;45.97;92986.53;5146576;27;20320;-73
2022/04/09 05:22:14;;;;;;;6.68;2.30;;;;;;;13.78;45.44;92981.38;5146517;27;20029;-73
2022/04/09 05:24:40;;;;;;;10.77;2.65;;;;;;;13.90;45.61;92977.78;5146618;27;20313;-73
2022/04/09 05:27:05;;;;;;;6.47;2.53;;;;;;;14.01;45.46;92970.72;5146813;27;20027;-74
2022/04/09 05:29:31;;;;;;;7.68;2.78;;;;;;;14.12;45.32;92979.72;5146595;27;20042;-73
2022/04/09 05:31:57;;;;;;;12.48;2.47;;;;;;;14.23;44.75;92982.59;5146628;27;20019;-72
2022/04/09 05:34:22;;;;;;;5.95;2.08;;;;;;;14.38;44.24;92988.97;5146392;27;20336;-73
2022/04/09 05:36:48;;;;;;;4.78;2.00;;;;;;;14.55;43.87;92967.03;5146510;27;20055;-72
2022/04/09 05:39:15;;;;;;;7.60;2.03;;;;;;;14.69;43.38;92976.47;5146375;27;20035;-73
2022/04/09 05:41:41;;;;;;;11.43;2.45;;;;;;;14.80;43.27;92982.78;5146202;27;20082;-73
2022/04/09 05:44:06;;;;;;;6.82;1.90;;;;;;;14.92;43.06;92981.78;5146161;27;20261;-73
2022/04/09 05:46:32;;;;;;;14.57;2.95;;;;;;;15.04;42.78;92978.88;5146384;27;20019;-73
2022/04/09 05:48:57;;;;;;;7.32;2.35;;;;;;;15.10;42.47;92972.09;5146366;27;20031;-73
2022/04/09 05:51:24;;;;;;;6.78;2.15;;;;;;;15.20;42.78;92978.72;5146081;27;20015;-72
2022/04/09 05:53:49;;;;;;;9.48;2.20;;;;;;;15.30;41.77;92996.88;5146200;27;20015;-72
2022/04/09 05:56:15;;;;;;;7.30;2.40;;;;;;;15.30;41.85;92983.44;5146095;27;20217;-73
2022/04/09 05:58:42;;;;;;;22.45;2.92;;;;;;;15.39;41.68;92989.34;5145301;27;20019;-72
2022/04/09 06:01:08;;;;;;;10.60;2.50;;;;;;;15.49;41.55;92990.63;5145945;27;20030;-75
2022/04/09 06:03:34;;;;;;;7.15;2.50;;;;;;;15.50;41.70;92996.75;5145998;27;20094;-73
2022/04/09 06:06:00;;;;;;;5.38;2.25;;;;;;;15.50;40.91;93002.13;5145903;27;20027;-76
2022/04/09 06:08:25;;;;;;;10.63;2.30;;;;;;;15.53;40.89;92985.28;5145972;27;20329;-77
2022/04/09 06:10:51;;;;;;;8.93;2.38;;;;;;;15.60;41.03;92993.44;5145903;27;20023;-73
2022/04/09 06:13:16;;;;;;;12.02;2.35;;;;;;;15.71;41.02;92993.56;5145962;27;20042;-73
2022/04/09 06:15:41;;;;;;;8.05;2.60;;;;;;;15.80;41.26;92986.03;5127253;27;20031;-73
2022/04/09 06:18:08;;;;;;;14.82;2.60;;;;;;;15.94;40.69;92982.72;5145614;27;20277;-76
2022/04/09 06:20:34;;;;;;;7.85;1.92;;;;;;;16.02;40.32;92995.09;5145457;27;20090;-71
2022/04/09 06:22:59;;;;;;;9.68;2.05;;;;;;;16.12;40.54;92989.06;5145700;27;20079;-72
2022/04/09 06:25:26;;;;;;;7.68;2.60;;;;;;;16.23;39.98;92979.16;5145534;27;20027;-72
2022/04/09 06:27:51;;;;;;;7.68;2.60;;;;;;;16.37;40.13;92977.75;5145545;27;20031;-72
2022/04/09 06:30:17;;;;;;;9.73;2.08;;;;;;;16.50;39.94;92979.00;5145567;27;20107;-72
2022/04/09 06:32:42;;;;;;;16.55;2.55;;;;;;;16.67;39.12;92979.53;5145504;27;20031;-72
2022/04/09 06:35:08;;;;;;;10.13;2.53;;;;;;;16.77;40.41;92973.47;5145219;27;20364;-72
2022/04/09 06:37:38;;;;;;;10.07;2.80;;;;;;;16.89;40.89;92981.25;5145485;27;20019;-73
2022/04/09 06:40:07;;;;;;;13.02;3.00;;;;;;;16.96;40.08;92975.94;5145044;27;20023;-73
2022/04/09 06:42:32;;;;;;;13.18;3.15;;;;;;;16.98;38.72;92981.72;5145050;27;20035;-73
2022/04/09 06:45:00;;;;;;;7.88;3.95;;;;;;;16.94;38.82;92991.69;5145146;27;20206;-72
2022/04/09 06:47:25;;;;;;;15.68;3.75;;;;;;;16.93;39.21;92994.75;5144562;27;20046;-72
2022/04/09 06:49:51;;;;;;;14.02;3.05;;;;;;;16.97;38.98;92995.56;5144846;27;20038;-72
2022/04/09 06:52:16;;;;;;;7.40;3.38;;;;;;;17.02;38.94;92987.91;5144982;27;20247;-72
2022/04/09 06:54:42;;;;;;;13.43;3.05;;;;;;;17.11;38.64;92987.56;5145082;27;20106;-72
2022/04/09 06:57:08;;;;;;;8.82;3.10;;;;;;;17.15;38.48;92988.38;5144645;27;20049;-73
2022/04/09 06:59:33;;;;;;;8.55;2.92;;;;;;;17.18;38.20;92989.56;5126253;27;20039;-73
2022/04/09 07:01:58;;;;;;;23.23;4.20;;;;;;;17.18;38.85;92984.16;5144807;27;20019;-72
2022/04/09 07:04:24;;;;;;;10.23;3.78;;;;;;;17.27;38.74;92991.91;5144639;27;20034;-72
2022/04/09 07:06:49;;;;;;;11.80;3.10;;;;;;;17.31;38.58;92996.16;5144614;27;20023;-72
2022/04/09 07:09:15;;;;;;;9.45;3.33;;;;;;;17.37;37.66;92994.66;5144632;27;20030;-71
2022/04/09 07:11:40;;;;;;;8.52;3.72;;;;;;;17.32;38.22;92997.72;5144700;27;20221;-72
2022/04/09 07:14:06;;;;;;;15.05;4.80;;;;;;;17.35;38.44;92990.81;5144515;27;20250;-72
2022/04/09 07:16:31;;;;;;;18.17;4.43;;;;;;;17.47;38.77;92992.41;5144705;27;20023;-72
2022/04/09 07:18:57;;;;;;;17.60;4.35;;;;;;;17.58;38.32;92987.81;5144451;27;20027;-74
2022/04/09 07:21:22;;;;;;;8.48;3.75;;;;;;;17.72;38.37;92977.09;5144242;27;20026;-73
2022/04/09 07:23:48;;;;;;;15.52;3.83;;;;;;;17.83;38.25;92982.59;5144311;27;20049;-73
2022/04/09 07:26:15;;;;;;;16.90;4.28;;;;;;;17.98;38.11;92992.25;5144070;27;20252;-72
2022/04/09 07:28:41;;;;;;;20.48;3.75;;;;;;;18.12;38.23;92986.13;5144383;27;20068;-73
2022/04/09 07:31:09;;;;;;;22.27;4.43;;;;;;;18.24;37.89;92983.06;5144084;27;20022;-71
2022/04/09 07:33:35;;;;;;;15.43;4.05;;;;;;;18.36;37.36;92983.84;5143652;27;20023;-73
2022/04/09 07:36:00;;;;;;;15.82;4.03;;;;;;;18.53;37.58;92985.03;5144065;27;20045;-73
2022/04/09 07:38:25;;;;;;;9.32;3.78;;;;;;;18.58;37.05;92982.75;5125766;27;20305;-73
2022/04/09 07:40:51;;;;;;;14.10;3.55;;;;;;;18.61;36.93;92976.56;5143853;27;20029;-73
2022/04/09 07:43:18;;;;;;;18.50;4.10;;;;;;;18.69;36.28;92974.66;5143445;27;20023;-73
2022/04/09 07:45:43;;;;;;;10.77;4.30;;;;;;;18.79;36.14;92970.44;5143533;27;20027;-73
2022/04/09 07:48:11;;;;;;;24.33;4.72;;;;;;;18.91;36.35;92970.03;5143900;27;20031;-72
2022/04/09 07:50:36;;;;;;;17.02;3.92;;;;;;;18.99;35.89;92976.97;5143703;27;20063;-72
2022/04/09 07:53:02;;;;;;;12.07;3.45;;;;;;;19.02;35.35;92973.50;5144053;27;20019;-82
2022/04/09 07:55:27;;;;;;;13.82;3.17;;;;;;;19.06;35.83;92967.31;5144543;27;20026;-81
2022/04/09 07:57:54;;;;;;;7.50;2.78;;;;;;;19.02;35.83;92968.09;5144353;27;20023;-82
2022/04/09 08:00:21;;;;;;;11.90;2.90;;;;;;;19.14;34.97;92966.91;5145125;27;20023;-94
2022/04/09 08:02:48;;;;;;;13.18;3.35;;;;;;;19.30;35.36;92971.16;5144491;27;20096;-93
2022/04/09 08:05:18;;;;;;;15.80;2.97;;;;;;;19.44;34.66;92966.47;5144240;27;20031;-82
2022/04/09 08:07:44;;;;;;;7.63;3.45;;;;;;;19.57;34.05;92964.09;5143758;27;20288;-78
2022/04/09 08:10:13;;;;;;;7.13;2.80;;;;;;;19.67;33.90;92962.53;5143626;28;20055;-80
2022/04/09 08:12:39;;;;;;;14.77;3.20;;;;;;;19.81;33.95;92962.50;5143659;28;20056;-79
2022/04/09 08:15:05;;;;;;;26.55;3.92;;;;;;;20.00;34.57;92963.19;5143666;28;20019;-80
2022/04/09 08:17:31;;;;;;;10.73;3.15;;;;;;;20.22;33.37;92970.03;5144057;28;20393;-80
2022/04/09 08:19:58;;;;;;;13.23;3.30;;;;;;;20.37;33.20;92954.50;5143543;28;20035;-80
2022/04/09 08:22:24;;;;;;;10.52;3.03;;;;;;;20.35;33.39;92953.31;5145098;27;20320;-80
2022/04/09 08:24:50;;;;;;;8.05;2.95;;;;;;;20.48;32.44;92964.47;5147431;27;20038;-81
2022/04/09 08:27:16;;;;;;;14.30;3.92;;;;;;;20.54;32.35;92968.28;5147828;27;20019;-80
2022/04/09 08:29:41;;;;;;;8.00;3.50;;;;;;;20.61;32.39;92950.06;5147965;27;20023;-81
2022/04/09 08:32:06;;;;;;;8.65;3.10;;;;;;;20.83;32.56;92947.19;5129478;27;20097;-81
2022/04/09 08:34:35;;;;;;;9.98;2.60;;;;;;;21.00;31.66;92948.19;5147942;27;20210;-81
2022/04/09 08:37:02;;;;;;;7.72;3.10;;;;;;;21.13;31.46;92943.84;5148077;27;20073;-82
2022/04/09 08:39:28;;;;;;;6.97;3.05;;;;;;;21.29;30.46;92951.44;5147687;27;20045;-81
2022/04/09 08:41:55;;;;;;;16.48;3.20;;;;;;;21.45;30.82;92945.47;5147543;27;20186;-80
2022/04/09 08:44:21;;;;;;;7.32;2.92;;;;;;;21.58;30.29;92943.00;5147714;27;20023;-81
2022/04/09 08:46:47;;;;;;;12.98;3.03;;;;;;;21.70;29.69;92950.63;5147652;27;20025;-80
2022/04/09 08:49:13;;;;;;;11.60;2.80;;;;;;;21.81;29.59;92940.41;5147708;27;20038;-80
2022/04/09 08:51:39;;;;;;;5.95;2.13;;;;;;;21.89;29.54;92953.88;5147531;27;20011;-81
2022/04/09 08:54:05;;;;;;;17.20;2.95;;;;;;;21.94;29.03;92940.63;5147692;27;20217;-81
2022/04/09 08:56:35;;;;;;;15.55;3.20;;;;;;;21.91;29.17;92948.81;5147456;27;20015;-80
2022/04/09 08:59:04;;;;;;;9.15;2.80;;;;;;;21.95;29.45;92938.69;5147351;27;20038;-81
2022/04/09 09:01:31;;;;;;;9.85;2.72;;;;;;;21.98;29.47;92935.94;5147416;27;20049;-81
2022/04/09 09:03:57;;;;;;;11.93;2.80;;;;;;;21.98;29.79;92927.81;5147041;27;20370;-80
2022/04/09 09:06:35;;;;;;;9.40;2.85;;;;;;;22.02;29.34;92941.28;5147297;27;20071;-82
2022/04/09 09:09:04;;;;;;;7.72;2.15;;;;;;;22.07;28.98;92934.66;5147234;27;20023;-79
2022/04/09 09:11:43;;;;;;;7.75;2.15;;;;;;;22.07;28.83;92932.72;5147014;27;20023;-80
2022/04/09 09:14:09;;;;;;;9.23;2.58;;;;;;;22.09;28.60;92921.47;5146907;27;20015;-80
2022/04/09 09:16:34;;;;;;;8.80;2.17;;;;;;;22.11;28.55;92930.72;5146761;27;20372;-81
2022/04/09 09:19:04;;;;;;;7.18;1.58;;;;;;;22.09;28.58;92930.34;5147187;27;20027;-80
2022/04/09 09:21:30;;;;;;;6.90;2.17;;;;;;;22.09;28.63;92929.59;5147138;27;20090;-80
2022/04/09 09:24:15;;;;;;;6.60;2.47;;;;;;;22.11;29.31;92917.16;5146584;27;20379;-84
2022/04/09 09:26:43;;;;;;;7.90;2.28;;;;;;;22.07;29.17;92924.56;5147053;27;20256;-82
2022/04/09 09:29:11;;;;;;;8.77;2.90;;;;;;;22.07;29.13;92921.84;5146666;27;20018;-73
2022/04/09 09:31:41;;;;;;;9.68;2.10;;;;;;;22.04;28.81;92917.25;5146448;27;20021;-73
2022/04/09 09:34:11;;;;;;;11.07;2.28;;;;;;;21.95;28.49;92892.56;5126764;27;20330;-75
2022/04/09 09:36:38;;;;;;;5.65;1.90;;;;;;;21.81;29.00;92901.66;5146504;27;20220;-74
2022/04/09 09:39:05;;;;;;;4.97;1.90;;;;;;;21.83;28.62;92902.78;5146663;27;20080;-74
2022/04/09 09:41:31;;;;;;;10.90;1.88;;;;;;;21.83;28.50;92905.50;5146430;27;20217;-81
2022/04/09 09:44:04;;;;;;;6.80;2.08;;;;;;;21.93;29.40;92906.53;5146456;27;20103;-74
2022/04/09 09:46:30;;;;;;;4.53;1.58;;;;;;;22.05;28.56;92899.78;5146531;27;20015;-75
2022/04/09 09:48:56;;;;;;;7.53;1.95;;;;;;;22.03;26.70;92899.44;5146174;27;20031;-76
2022/04/09 09:51:23;;;;;;;8.45;2.47;;;;;;;22.03;27.39;92899.44;5146372;27;20038;-75
2022/04/09 09:53:49;;;;;;;8.23;1.65;;;;;;;21.89;26.09;92899.63;5146013;27;20030;-80
2022/04/09 09:56:33;;;;;;;4.78;1.50;;;;;;;21.90;26.03;92890.31;5146335;27;20022;-77
2022/04/09 09:59:00;;;;;;;4.18;1.33;;;;;;;21.50;25.84;92892.75;5145847;27;20132;-76
2022/04/09 10:01:26;;;;;;;4.05;1.83;;;;;;;21.13;26.81;92880.75;5145780;27;20316;-76
2022/04/09 10:03:53;;;;;;;7.85;2.10;;;;;;;20.97;27.12;92875.88;5145856;27;20042;-76
2022/04/09 10:06:22;;;;;;;3.65;1.27;;;;;;;20.99;27.57;92887.84;5146033;27;20027;-75
2022/04/09 10:08:48;;;;;;;3.85;1.38;;;;;;;20.80;26.05;92889.19;5145786;27;20027;-76
2022/04/09 10:11:17;;;;;;;2.60;1.10;;;;;;;20.62;27.69;92875.81;5127556;27;20280;-76
2022/04/09 10:13:44;;;;;;;2.30;1.27;;;;;;;20.61;27.01;92882.38;5145683;27;20212;-75
2022/04/09 10:16:12;;;;;;;4.60;1.35;;;;;;;20.62;26.99;92889.34;5145638;27;20023;-75
2022/04/09 10:18:38;;;;;;;7.65;1.40;;;;;;;20.65;26.03;92876.94;5145358;27;20027;-76
2022/04/09 10:21:05;;;;;;;7.88;1.42;;;;;;;20.56;26.95;92860.38;5145608;27;20022;-75
2022/04/09 10:23:33;;;;;;;5.00;1.38;;;;;;;20.51;27.63;92893.28;5145834;27;20034;-76
2022/04/09 10:26:01;;;;;;;5.10;1.42;;;;;;;20.47;27.08;92885.19;5145630;27;20022;-74
2022/04/09 10:28:38;;;;;;;2.95;1.42;;;;;;;20.52;27.25;92890.19;5145433;27;20026;-75
2022/04/09 10:31:22;;;;;;;9.02;2.03;;;;;;;20.59;27.81;92900.22;5145696;27;20034;-74
2022/04/09 10:33:58;;;;;;;4.22;1.17;;;;;;;20.47;26.71;92882.47;5145370;27;20027;-77
2022/04/09 10:36:43;;;;;;;3.35;1.20;;;;;;;20.53;25.60;92875.47;5145332;27;20027;-77
2022/04/09 10:39:26;;;;;;;6.22;1.40;;;;;;;20.56;29.00;92869.28;5145404;27;20046;-79
2022/04/09 10:41:54;;;;;;;5.20;1.55;;;;;;;20.56;27.50;92873.91;5145189;27;20094;-78
2022/04/09 10:44:49;;;;;;;6.72;1.20;;;;;;;20.63;27.85;92871.16;5144821;27;20042;-76
2022/04/09 10:47:15;;;;;;;4.50;1.25;;;;;;;20.68;28.94;92853.72;5126788;27;20084;-75
2022/04/09 10:49:42;;;;;;;6.47;1.35;;;;;;;20.64;28.27;92870.78;5145019;27;20313;-77
2022/04/09 10:52:14;;;;;;;5.63;1.30;;;;;;;20.74;28.46;92858.31;5144900;27;20015;-78
2022/04/09 10:55:11;;;;;;;6.28;1.38;;;;;;;20.96;29.06;92839.13;5144993;27;20023;-83
2022/04/09 10:57:45;;;;;;;5.85;1.33;;;;;;;21.26;28.60;92835.69;5144810;27;20103;-75
2022/04/09 11:00:23;;;;;;;3.80;1.30;;;;;;;21.51;27.00;92840.06;5144694;27;20094;-76
2022/04/09 11:03:03;;;;;;;4.70;1.50;;;;;;;21.56;26.94;92850.47;5144527;27;20019;-77
2022/04/09 11:05:29;;;;;;;4.65;1.42;;;;;;;21.26;26.38;92834.94;5144720;27;20042;-75
2022/04/09 11:08:05;;;;;;;9.35;1.42;;;;;;;21.25;27.46;92828.75;5144646;27;20276;-76
2022/04/09 11:10:31;;;;;;;7.10;1.35;;;;;;;21.21;25.67;92830.75;5144316;27;20026;-75
2022/04/09 11:12:57;;;;;;;3.78;1.67;;;;;;;21.19;26.35;92833.84;5125689;27;20015;-74
2022/04/09 11:15:22;;;;;;;5.88;1.40;;;;;;;20.97;26.22;92841.44;5142247;27;20321;-75
2022/04/09 11:17:48;;;;;;;3.33;1.40;;;;;;;20.77;27.22;92824.25;5123878;27;20041;-75
2022/04/09 11:20:16;;;;;;;8.43;1.88;;;;;;;20.61;27.53;92824.78;5142540;27;20030;-74
2022/04/09 11:22:51;;;;;;;2.97;1.20;;;;;;;20.54;27.39;92822.13;5142379;27;20018;-74
2022/04/09 11:25:29;;;;;;;3.72;1.33;;;;;;;20.72;27.13;92811.13;5142586;27;20027;-75
2022/04/09 11:28:05;;;;;;;4.13;1.60;;;;;;;20.80;26.52;92809.88;5143272;27;20354;-75
2022/04/09 11:30:31;;;;;;;7.85;1.77;;;;;;;20.79;25.37;92802.94;5144239;27;20068;-74